Time;durP1;ratioP1;P1;durP2;ratioP2;P2;SDS_P1;SDS_P2;PMS_P1;PMS_P2;Temp;Humidity;BMP_temperature;BMP_pressure;BME280_temperature;BME280_humidity;BME280_pressure;Samples;Min_cycle;Max_cycle;Signal;HPM_P1;HPM_P2
2021/06/07 00:00:39;;;;;;;;;9.25;8.25;;;;;18.30;56.24;102070.22;6310905;22;45266;-92
2021/06/07 00:03:05;;;;;;;;;7.50;6.00;;;;;18.26;56.05;102062.53;6337950;22;45495;-92
2021/06/07 00:05:34;;;;;;;;;7.50;6.75;;;;;18.23;56.35;102058.28;6337225;22;47893;-92
2021/06/07 00:08:00;;;;;;;;;7.25;7.25;;;;;18.20;56.34;102055.78;6311100;22;45315;-92
2021/06/07 00:10:26;;;;;;;;;7.00;7.00;;;;;18.21;56.59;102059.28;6311182;22;45405;-92
2021/06/07 00:12:51;;;;;;;;;7.50;7.00;;;;;18.16;56.30;102055.06;6311478;22;45432;-92
2021/06/07 00:15:20;;;;;;;;;8.00;7.25;;;;;18.17;56.32;102061.19;6337273;22;47208;-91
2021/06/07 00:17:46;;;;;;;;;6.75;6.00;;;;;18.15;56.56;102056.00;6311859;22;45223;-92
2021/06/07 00:20:17;;;;;;;;;7.50;6.50;;;;;18.15;56.66;102055.16;6311419;22;45336;-92
2021/06/07 00:22:43;;;;;;;;;6.25;6.25;;;;;18.10;56.74;102051.88;6311317;22;45540;-92
2021/06/07 00:25:09;;;;;;;;;6.00;5.50;;;;;18.07;56.51;102058.16;6310418;22;47000;-91
2021/06/07 00:27:35;;;;;;;;;7.50;7.00;;;;;18.02;56.48;102046.94;6337097;22;45166;-92
2021/06/07 00:30:04;;;;;;;;;7.25;7.00;;;;;17.98;56.87;102053.28;6310830;22;45228;-92
2021/06/07 00:32:29;;;;;;;;;8.75;8.75;;;;;17.94;56.45;102049.06;6337914;22;45364;-93
2021/06/07 00:34:55;;;;;;;;;6.75;6.50;;;;;17.87;57.10;102043.25;6310973;22;47187;-92
2021/06/07 00:37:21;;;;;;;;;9.00;9.00;;;;;17.83;57.19;102042.50;6311188;22;45310;-92
2021/06/07 00:39:46;;;;;;;;;6.25;5.00;;;;;17.80;57.04;102042.66;6311177;22;45302;-92
2021/06/07 00:42:12;;;;;;;;;8.25;7.25;;;;;17.73;57.44;102036.81;6311456;22;44939;-90
2021/06/07 00:44:40;;;;;;;;;11.25;8.50;;;;;17.67;57.21;102045.00;6310424;22;46810;-91
2021/06/07 00:47:06;;;;;;;;;7.50;7.50;;;;;17.61;57.80;102043.50;6310353;22;45820;-92
2021/06/07 00:49:31;;;;;;;;;7.50;7.00;;;;;17.59;57.63;102042.72;6337554;22;45258;-92
2021/06/07 00:51:57;;;;;;;;;9.00;6.75;;;;;17.52;57.64;102038.66;6311845;22;45467;-91
2021/06/07 00:54:22;;;;;;;;;5.75;5.75;;;;;17.49;57.63;102044.03;6310539;22;46958;-92
2021/06/07 00:56:48;;;;;;;;;7.25;7.00;;;;;17.45;57.82;102040.69;6311049;22;45420;-92
2021/06/07 00:59:14;;;;;;;;;8.50;7.00;;;;;17.50;58.00;102048.41;6310800;22;45284;-92
2021/06/07 01:01:39;;;;;;;;;7.00;6.25;;;;;17.45;57.91;102045.97;6310872;22;45792;-91
2021/06/07 01:04:06;;;;;;;;;7.75;7.00;;;;;17.42;57.74;102037.34;6310557;22;46643;-91
2021/06/07 01:06:31;;;;;;;;;7.75;7.50;;;;;17.42;58.14;102045.25;6338962;22;45381;-91
2021/06/07 01:08:57;;;;;;;;;7.50;7.50;;;;;17.42;58.04;102043.47;6311129;22;45199;-92
2021/06/07 01:11:23;;;;;;;;;8.50;8.50;;;;;17.39;58.32;102045.41;6311602;22;45180;-91
2021/06/07 01:13:51;;;;;;;;;9.25;8.25;;;;;17.32;58.01;102043.00;6310901;22;47117;-91
2021/06/07 01:16:17;;;;;;;;;8.25;8.25;;;;;17.31;57.80;102045.72;6310422;22;45282;-92
2021/06/07 01:18:43;;;;;;;;;6.50;5.50;;;;;17.27;58.37;102038.88;6311064;22;44857;-92
2021/06/07 01:21:10;;;;;;;;;10.25;9.00;;;;;17.23;58.35;102038.16;6311355;22;45453;-91
2021/06/07 01:23:37;;;;;;;;;7.75;7.75;;;;;17.17;58.26;102043.69;6310737;22;46688;-91
2021/06/07 01:26:05;;;;;;;;;6.25;6.25;;;;;17.11;58.54;102033.44;6311054;22;45288;-92
2021/06/07 01:28:31;;;;;;;;;8.25;8.00;;;;;17.08;58.58;102031.81;6310315;22;45379;-92
2021/06/07 01:30:57;;;;;;;;;9.75;9.00;;;;;17.06;58.79;102042.38;6311485;22;45449;-91
2021/06/07 01:33:25;;;;;;;;;10.50;9.00;;;;;17.02;58.86;102043.41;6336887;22;47201;-92
2021/06/07 01:35:57;;;;;;;;;7.75;6.25;;;;;16.98;58.71;102039.19;6310327;22;45322;-92
2021/06/07 01:38:23;;;;;;;;;8.50;8.00;;;;;16.92;59.01;102036.81;6337518;22;45292;-92
2021/06/07 01:40:57;;;;;;;;;8.00;8.00;;;;;16.92;59.22;102039.44;6337693;22;45452;-92
2021/06/07 01:43:23;;;;;;;;;10.00;8.75;;;;;16.87;58.72;102036.16;6336624;22;47188;-92
2021/06/07 01:45:51;;;;;;;;;7.00;6.50;;;;;16.85;59.24;102038.84;6336892;22;44703;-92
2021/06/07 01:48:18;;;;;;;;;10.25;9.75;;;;;16.76;59.64;102029.56;6310998;22;45479;-92
2021/06/07 01:50:45;;;;;;;;;9.75;9.75;;;;;16.75;59.64;102033.13;6337597;22;45269;-92
2021/06/07 01:53:12;;;;;;;;;8.00;8.00;;;;;16.70;59.57;102025.44;6311288;22;47822;-92
2021/06/07 01:55:41;;;;;;;;;10.75;7.25;;;;;16.68;59.77;102029.88;6309898;22;45656;-92
2021/06/07 01:58:09;;;;;;;;;8.25;8.25;;;;;16.65;59.79;102030.03;6309905;22;45231;-92
2021/06/07 02:00:57;;;;;;;;;10.00;9.50;;;;;16.64;60.03;102030.06;6311290;22;45286;-92
2021/06/07 02:03:24;;;;;;;;;8.50;8.50;;;;;16.57;59.95;102024.22;6337050;22;47394;-93
2021/06/07 02:05:53;;;;;;;;;10.50;9.75;;;;;16.54;60.08;102024.34;6310270;22;44801;-92
2021/06/07 02:08:22;;;;;;;;;11.00;7.75;;;;;16.50;60.28;102018.38;6310638;22;44645;-91
2021/06/07 02:10:54;;;;;;;;;8.75;8.75;;;;;16.46;59.85;102022.03;6311026;22;45497;-92
2021/06/07 02:13:20;;;;;;;;;7.50;7.50;;;;;16.42;60.45;102023.94;6337046;22;47108;-91
2021/06/07 02:15:58;;;;;;;;;12.50;10.75;;;;;16.42;60.28;102023.94;6310522;22;45539;-92
2021/06/07 02:18:24;;;;;;;;;10.25;7.50;;;;;16.35;60.07;102025.09;6310371;22;45305;-92
2021/06/07 02:20:50;;;;;;;;;9.00;8.50;;;;;16.35;60.39;102025.09;6310888;22;45252;-92
2021/06/07 02:23:16;;;;;;;;;7.50;7.50;;;;;16.31;60.44;102018.25;6310373;22;48032;-92
2021/06/07 02:25:41;;;;;;;;;10.50;10.00;;;;;16.32;60.59;102025.22;6337116;22;45419;-92
2021/06/07 02:28:12;;;;;;;;;9.33;9.33;;;;;16.32;60.75;102027.84;6311136;22;45384;-92
2021/06/07 02:30:38;;;;;;;;;8.50;8.25;;;;;16.26;60.71;102021.03;6310800;22;45206;-91
2021/06/07 02:33:03;;;;;;;;;11.67;10.33;;;;;16.26;60.62;102025.47;6310653;22;46965;-92
2021/06/07 02:35:31;;;;;;;;;8.00;8.00;;;;;16.22;60.80;102027.34;6336278;22;45366;-92
2021/06/07 02:37:57;;;;;;;;;9.50;9.00;;;;;16.22;60.97;102026.50;6311120;22;45318;-92
2021/06/07 02:40:25;;;;;;;;;9.25;8.00;;;;;16.16;61.02;102014.47;6336891;22;45246;-92
2021/06/07 02:42:51;;;;;;;;;10.00;9.50;;;;;16.17;60.72;102017.00;6310115;22;47237;-92
2021/06/07 02:45:20;;;;;;;;;9.50;9.00;;;;;16.17;61.21;102030.13;6310577;22;45270;-92
2021/06/07 02:47:47;;;;;;;;;10.25;10.25;;;;;16.15;61.21;102023.25;6311027;22;45367;-92
2021/06/07 02:50:16;;;;;;;;;7.50;6.75;;;;;16.12;61.11;102021.59;6310507;22;45256;-92
2021/06/07 02:52:48;;;;;;;;;8.75;8.50;;;;;16.11;61.26;102029.53;6337088;22;47110;-92
2021/06/07 02:55:20;;;;;;;;;11.25;9.00;;;;;16.07;61.25;102020.06;6310394;22;46274;-92
2021/06/07 02:57:48;;;;;;;;;9.00;9.00;;;;;16.05;60.99;102030.63;6310971;22;44733;-91
2021/06/07 03:00:17;;;;;;;;;6.25;6.25;;;;;16.03;61.37;102025.44;6311079;22;44797;-92
2021/06/07 03:02:43;;;;;;;;;11.25;9.50;;;;;16.00;61.38;102024.69;6309653;22;46913;-92
2021/06/07 03:05:09;;;;;;;;;10.25;9.25;;;;;15.98;61.48;102030.00;6336220;22;45351;-92
2021/06/07 03:07:34;;;;;;;;;9.25;8.00;;;;;15.96;61.32;102033.63;6310597;22;45444;-92
2021/06/07 03:10:00;;;;;;;;;8.75;7.50;;;;;15.94;61.45;102036.31;6310691;22;45539;-92
2021/06/07 03:12:25;;;;;;;;;9.00;8.75;;;;;15.90;61.28;102034.66;6310103;22;48444;-92
2021/06/07 03:14:51;;;;;;;;;7.75;7.75;;;;;15.87;61.32;102032.16;6336800;22;45356;-92
2021/06/07 03:17:16;;;;;;;;;7.25;7.25;;;;;15.86;61.58;102028.69;6309943;22;45543;-92
2021/06/07 03:19:42;;;;;;;;;7.75;6.25;;;;;15.83;61.60;102035.81;6310713;22;44942;-92
2021/06/07 03:22:07;;;;;;;;;9.50;9.00;;;;;15.80;61.43;102033.28;6309940;22;47095;-91
2021/06/07 03:24:33;;;;;;;;;9.25;8.00;;;;;15.77;61.76;102032.50;6336568;22;45250;-93
2021/06/07 03:26:58;;;;;;;;;10.00;10.00;;;;;15.77;61.80;102037.75;6310328;22;45306;-92
2021/06/07 03:29:24;;;;;;;;;8.00;8.00;;;;;15.71;61.85;102029.25;6310814;22;45233;-92
2021/06/07 03:31:50;;;;;;;;;7.25;7.00;;;;;15.72;62.11;102036.19;6310347;22;47409;-91
2021/06/07 03:34:15;;;;;;;;;7.25;7.00;;;;;15.69;62.13;102029.28;6335198;22;45453;-92
2021/06/07 03:36:41;;;;;;;;;8.00;8.00;;;;;15.66;61.96;102021.56;6309987;22;45215;-92
2021/06/07 03:39:06;;;;;;;;;9.75;9.50;;;;;15.63;61.76;102021.66;6310815;22;45310;-92
2021/06/07 03:41:32;;;;;;;;;8.50;7.75;;;;;15.62;62.06;102031.31;6309948;22;46946;-91
2021/06/07 03:43:57;;;;;;;;;7.00;7.00;;;;;15.61;61.96;102026.97;6336448;22;45815;-92
2021/06/07 03:46:22;;;;;;;;;9.00;9.00;;;;;15.57;62.25;102028.00;6310018;22;45018;-92
2021/06/07 03:48:48;;;;;;;;;9.00;7.00;;;;;15.57;62.09;102025.38;6310672;22;45230;-92
2021/06/07 03:51:13;;;;;;;;;6.50;6.25;;;;;15.54;62.12;102028.09;6309893;22;46646;-92
2021/06/07 03:53:39;;;;;;;;;7.25;7.00;;;;;15.53;62.30;102025.53;6310402;22;44864;-92
2021/06/07 03:56:04;;;;;;;;;11.25;10.25;;;;;15.49;62.19;102020.41;6335969;22;45695;-92
2021/06/07 03:58:31;;;;;;;;;7.00;5.00;;;;;15.47;62.40;102024.84;6310656;22;45428;-92
2021/06/07 04:00:57;;;;;;;;;9.00;8.50;;;;;15.51;62.42;102022.97;6309910;22;47428;-92
2021/06/07 04:03:25;;;;;;;;;12.75;12.00;;;;;15.52;62.32;102032.56;6309693;22;45392;-92
2021/06/07 04:05:50;;;;;;;;;10.25;9.00;;;;;15.45;62.71;102017.94;6309750;22;45322;-92
2021/06/07 04:08:16;;;;;;;;;10.00;8.25;;;;;15.45;62.50;102018.81;6310455;22;45279;-93
2021/06/07 04:10:44;;;;;;;;;10.00;9.00;;;;;15.45;62.76;102017.94;6309768;22;47855;-92
2021/06/07 04:13:10;;;;;;;;;11.00;8.25;;;;;15.45;62.65;102016.19;6310171;22;45367;-92
2021/06/07 04:15:35;;;;;;;;;10.00;9.75;;;;;15.47;62.83;102014.34;6309711;22;45535;-92
2021/06/07 04:18:01;;;;;;;;;8.50;7.00;;;;;15.46;62.67;102009.19;6310430;22;45298;-92
2021/06/07 04:20:29;;;;;;;;;11.75;7.75;;;;;15.47;62.86;102019.59;6310108;22;47351;-91
2021/06/07 04:22:55;;;;;;;;;8.00;8.00;;;;;15.46;62.72;102017.03;6311362;22;45305;-92
2021/06/07 04:25:26;;;;;;;;;8.75;7.50;;;;;15.46;62.84;102017.03;6311652;22;45204;-92
2021/06/07 04:27:54;;;;;;;;;9.25;9.25;;;;;15.49;62.82;102020.41;6311251;22;45420;-92
2021/06/07 04:30:21;;;;;;;;;11.50;10.25;;;;;15.48;62.88;102030.94;6311076;22;47173;-92
2021/06/07 04:32:48;;;;;;;;;9.25;9.25;;;;;15.49;62.82;102023.03;6339779;22;45282;-92
2021/06/07 04:35:15;;;;;;;;;13.25;10.00;;;;;15.53;62.96;102028.16;6311477;22;45246;-92
2021/06/07 04:37:53;;;;;;;;;9.75;9.25;;;;;15.49;62.37;102015.16;6311404;22;45542;-93
2021/06/07 04:40:22;;;;;;;;;11.00;9.00;;;;;15.51;63.01;102020.34;6337472;22;46821;-91
2021/06/07 04:42:48;;;;;;;;;10.75;9.75;;;;;15.49;62.97;102015.16;6310238;22;45410;-92
2021/06/07 04:45:15;;;;;;;;;10.00;9.50;;;;;15.53;62.83;102023.78;6311460;22;45365;-92
2021/06/07 04:47:43;;;;;;;;;9.25;9.25;;;;;15.54;62.94;102028.09;6311419;22;45382;-93
2021/06/07 04:50:11;;;;;;;;;11.50;9.75;;;;;15.56;62.83;102028.06;6336716;22;47367;-92
2021/06/07 04:52:56;;;;;;;;;11.50;10.50;;;;;15.58;62.95;102031.47;6310985;22;45203;-92
2021/06/07 04:55:35;;;;;;;;;11.50;8.00;;;;;15.59;62.95;102036.66;6311665;22;45468;-92
2021/06/07 04:58:04;;;;;;;;;10.25;9.50;;;;;15.58;62.88;102026.22;6311856;22;45627;-93
2021/06/07 05:00:31;;;;;;;;;8.75;8.00;;;;;15.57;63.07;102024.50;6311441;22;47213;-92
2021/06/07 05:02:57;;;;;;;;;11.25;10.50;;;;;15.63;62.97;102030.41;6339316;22;45193;-92
2021/06/07 05:05:23;;;;;;;;;11.00;9.00;;;;;15.65;62.99;102025.09;6336999;22;45401;-92
2021/06/07 05:07:48;;;;;;;;;13.50;10.50;;;;;15.69;62.80;102028.47;6311766;22;45361;-91
2021/06/07 05:10:15;;;;;;;;;15.00;11.25;;;;;15.72;62.65;102029.19;6337132;22;46936;-92
2021/06/07 05:12:41;;;;;;;;;11.00;9.75;;;;;15.77;62.72;102034.25;6311156;22;45365;-92
2021/06/07 05:15:08;;;;;;;;;10.00;9.25;;;;;15.82;62.58;102032.31;6310886;22;45472;-93
2021/06/07 05:17:34;;;;;;;;;12.00;12.00;;;;;15.85;62.29;102029.59;6311175;22;45284;-91
2021/06/07 05:20:02;;;;;;;;;7.00;7.00;;;;;15.91;62.53;102036.38;6310305;22;47159;-92
2021/06/07 05:22:28;;;;;;;;;8.75;8.00;;;;;15.92;62.17;102032.00;6311167;22;45368;-92
2021/06/07 05:24:54;;;;;;;;;9.00;9.00;;;;;15.95;62.03;102029.25;6337088;22;45238;-92
2021/06/07 05:27:19;;;;;;;;;10.00;9.00;;;;;15.99;62.12;102023.00;6337319;22;45235;-92
2021/06/07 05:29:45;;;;;;;;;12.25;12.00;;;;;16.02;62.32;102028.97;6335987;22;47086;-91
2021/06/07 05:32:13;;;;;;;;;10.00;10.00;;;;;16.05;61.98;102029.78;6310819;22;45547;-92
2021/06/07 05:34:39;;;;;;;;;12.75;9.00;;;;;16.09;62.12;102032.22;6310878;22;45333;-91
2021/06/07 05:37:05;;;;;;;;;8.00;6.00;;;;;16.11;62.29;102030.38;6337434;22;44823;-92
2021/06/07 05:39:30;;;;;;;;;11.25;10.00;;;;;16.15;61.82;102026.72;6337250;22;47154;-92
2021/06/07 05:41:56;;;;;;;;;13.00;10.00;;;;;16.20;61.88;102033.59;6310890;22;45187;-92
2021/06/07 05:44:21;;;;;;;;;10.25;10.00;;;;;16.24;62.19;102036.03;6311489;22;45152;-92
2021/06/07 05:46:47;;;;;;;;;14.00;11.50;;;;;16.33;62.02;102045.31;6310892;22;45483;-92
2021/06/07 05:49:14;;;;;;;;;12.25;11.00;;;;;16.36;61.68;102041.69;6310677;22;47073;-92
2021/06/07 05:51:42;;;;;;;;;13.25;12.25;;;;;16.41;61.79;102042.38;6311134;22;45520;-92
2021/06/07 05:54:07;;;;;;;;;11.50;9.50;;;;;16.41;61.61;102038.00;6337415;22;45245;-91
2021/06/07 05:56:34;;;;;;;;;14.00;12.00;;;;;16.46;61.78;102037.78;6310363;22;45219;-92
2021/06/07 05:59:00;;;;;;;;;10.50;9.00;;;;;16.50;61.09;102042.00;6310895;22;47046;-92
2021/06/07 06:01:29;;;;;;;;;11.00;11.00;;;;;16.54;61.40;102045.38;6337155;22;45206;-92
2021/06/07 06:03:54;;;;;;;;;13.25;11.00;;;;;16.61;61.29;102048.63;6311321;22;45279;-92
2021/06/07 06:06:19;;;;;;;;;14.00;12.50;;;;;16.66;61.39;102041.41;6337136;22;44729;-92
2021/06/07 06:08:46;;;;;;;;;9.50;9.50;;;;;16.67;61.28;102038.69;6310934;22;47093;-92
2021/06/07 06:11:12;;;;;;;;;10.50;10.50;;;;;16.74;61.16;102041.06;6337069;22;45222;-91
2021/06/07 06:13:38;;;;;;;;;10.00;9.25;;;;;16.76;61.06;102040.06;6311006;22;45283;-92
2021/06/07 06:16:03;;;;;;;;;15.25;11.75;;;;;16.81;61.02;102034.66;6311051;22;45271;-93
2021/06/07 06:18:29;;;;;;;;;13.00;11.25;;;;;16.88;60.51;102032.59;6336503;22;48341;-91
2021/06/07 06:20:54;;;;;;;;;13.00;12.00;;;;;16.94;60.36;102045.50;6336239;22;45610;-92
2021/06/07 06:23:20;;;;;;;;;13.25;11.50;;;;;17.01;60.06;102043.44;6338793;22;45269;-92
2021/06/07 06:25:45;;;;;;;;;8.00;8.00;;;;;17.06;60.16;102039.75;6311101;22;45434;-91
2021/06/07 06:28:12;;;;;;;;;7.00;7.00;;;;;17.14;60.06;102051.72;6310388;22;47227;-91
2021/06/07 06:30:37;;;;;;;;;13.75;12.50;;;;;17.19;60.20;102044.47;6337087;22;45395;-92
2021/06/07 06:33:03;;;;;;;;;10.75;10.25;;;;;17.28;59.63;102056.38;6310542;22;45354;-92
2021/06/07 06:35:31;;;;;;;;;12.00;9.75;;;;;17.31;60.10;102051.81;6310770;22;45445;-92
2021/06/07 06:37:57;;;;;;;;;13.25;12.25;;;;;17.36;60.11;102049.84;6310412;22;47141;-92
2021/06/07 06:40:31;;;;;;;;;10.50;10.50;;;;;17.41;59.47;102052.28;6310464;22;45328;-92
2021/06/07 06:42:58;;;;;;;;;12.75;10.25;;;;;17.47;59.40;102048.53;6309730;22;45405;-92
2021/06/07 06:45:24;;;;;;;;;10.25;10.00;;;;;17.50;59.48;102043.16;6310086;22;45515;-92
2021/06/07 06:47:55;;;;;;;;;9.75;9.75;;;;;17.57;59.14;102055.09;6310470;22;47846;-91
2021/06/07 06:50:32;;;;;;;;;10.67;9.67;;;;;17.65;59.43;102054.75;6338415;22;45439;-92
2021/06/07 06:52:58;;;;;;;;;10.00;9.00;;;;;17.69;58.92;102044.94;6311071;22;45315;-91
2021/06/07 06:55:24;;;;;;;;;12.50;10.50;;;;;17.73;59.06;102042.09;6311545;22;44725;-92
2021/06/07 06:57:49;;;;;;;;;10.00;10.00;;;;;17.81;57.96;102040.91;6310826;22;46515;-93
2021/06/07 07:00:15;;;;;;;;;12.75;10.75;;;;;17.87;58.65;102041.44;6338615;22;45170;-91
2021/06/07 07:02:41;;;;;;;;;8.00;7.00;;;;;17.94;58.35;102041.16;6336268;22;45558;-92
2021/06/07 07:05:07;;;;;;;;;10.00;9.50;;;;;18.01;57.90;102046.06;6309775;22;45373;-91
2021/06/07 07:07:33;;;;;;;;;10.00;10.00;;;;;18.09;58.14;102039.66;6273757;22;47715;-92
2021/06/07 07:10:00;;;;;;;;;8.75;8.75;;;;;18.14;57.89;102045.53;6298982;22;45357;-92
2021/06/07 07:12:26;;;;;;;;;8.50;8.50;;;;;18.25;57.65;102048.53;6310036;22;45456;-92
2021/06/07 07:14:52;;;;;;;;;12.25;11.25;;;;;18.30;57.67;102049.13;6310754;22;45476;-91
2021/06/07 07:17:18;;;;;;;;;10.75;9.25;;;;;18.36;57.29;102044.50;6335504;22;47416;-92
2021/06/07 07:19:45;;;;;;;;;11.50;9.00;;;;;18.43;57.33;102046.75;6310137;22;45277;-92
2021/06/07 07:22:12;;;;;;;;;12.67;11.00;;;;;18.49;56.92;102050.91;6310542;22;45272;-92
2021/06/07 07:24:39;;;;;;;;;8.75;8.75;;;;;18.58;56.50;102056.63;6336028;22;45450;-92
2021/06/07 07:27:05;;;;;;;;;8.00;8.00;;;;;18.59;56.65;102050.44;6309322;22;46945;-92
2021/06/07 07:29:32;;;;;;;;;11.25;9.50;;;;;18.64;56.09;102051.91;6335524;22;45372;-92
2021/06/07 07:31:58;;;;;;;;;9.50;9.50;;;;;18.73;56.15;102055.88;6309573;22;45220;-92
2021/06/07 07:34:29;;;;;;;;;9.00;9.00;;;;;18.79;56.31;102041.56;6310243;22;45362;-91
2021/06/07 07:36:54;;;;;;;;;9.00;8.50;;;;;18.88;55.94;102045.50;6309110;22;46666;-91
2021/06/07 07:39:20;;;;;;;;;7.50;7.50;;;;;18.93;55.91;102044.31;6309412;22;46100;-93
2021/06/07 07:41:47;;;;;;;;;7.75;7.00;;;;;19.01;55.83;102046.56;6310219;22;45195;-93
2021/06/07 07:44:13;;;;;;;;;10.50;10.50;;;;;19.05;55.36;102044.66;6336118;22;45445;-92
2021/06/07 07:46:38;;;;;;;;;7.67;7.67;;;;;19.11;55.43;102051.44;6309881;22;47015;-92
2021/06/07 07:49:04;;;;;;;;;8.00;8.00;;;;;19.18;55.41;102040.47;6335737;22;45463;-92
2021/06/07 07:51:29;;;;;;;;;8.00;8.00;;;;;19.30;55.25;102048.69;6309236;22;45777;-92
2021/06/07 07:53:55;;;;;;;;;15.67;12.33;;;;;19.38;54.59;102043.00;6309872;22;45386;-92
2021/06/07 07:56:20;;;;;;;;;10.75;10.00;;;;;19.43;54.63;102046.22;6310564;22;47880;-92
2021/06/07 07:58:46;;;;;;;;;7.00;7.00;;;;;19.45;54.65;102039.94;6311344;22;45738;-92
2021/06/07 08:01:14;;;;;;;;;10.50;10.00;;;;;19.53;54.60;102044.81;6310849;22;45210;-93
2021/06/07 08:03:39;;;;;;;;;8.33;8.33;;;;;19.61;54.28;102047.91;6311297;22;45401;-93
2021/06/07 08:06:05;;;;;;;;;8.33;7.67;;;;;19.72;54.14;102051.75;6310758;22;47082;-92
2021/06/07 08:08:30;;;;;;;;;9.25;7.00;;;;;19.75;53.13;102039.25;6310833;22;45349;-92
2021/06/07 08:10:58;;;;;;;;;8.00;7.00;;;;;19.82;53.64;102042.41;6311034;22;45433;-93
2021/06/07 08:13:24;;;;;;;;;8.67;6.00;;;;;19.92;53.36;102040.09;6337860;22;45170;-92
2021/06/07 08:15:50;;;;;;;;;10.50;8.25;;;;;19.96;52.80;102036.41;6337404;22;47906;-92
2021/06/07 08:18:16;;;;;;;;;8.50;7.50;;;;;20.06;53.01;102038.50;6336728;22;45295;-93
2021/06/07 08:20:42;;;;;;;;;9.50;8.00;;;;;20.12;52.88;102031.09;6310928;22;45393;-91
2021/06/07 08:23:08;;;;;;;;;7.50;7.50;;;;;20.23;52.74;102032.28;6311412;22;45457;-92
2021/06/07 08:25:34;;;;;;;;;8.50;8.00;;;;;20.35;52.36;102030.72;6310772;22;47917;-92
2021/06/07 08:27:59;;;;;;;;;7.50;7.50;;;;;20.48;51.96;102031.72;6310856;22;45418;-92
2021/06/07 08:30:27;;;;;;;;;12.00;10.75;;;;;20.60;51.95;102037.25;6337516;22;45281;-93
2021/06/07 08:32:53;;;;;;;;;6.50;6.25;;;;;20.63;51.42;102029.97;6311154;22;45261;-94
2021/06/07 08:35:19;;;;;;;;;8.25;6.75;;;;;20.70;51.42;102033.97;6310197;22;48095;-92
2021/06/07 08:37:44;;;;;;;;;10.00;10.00;;;;;20.81;51.23;102030.69;6339176;22;45233;-93
2021/06/07 08:40:12;;;;;;;;;7.33;7.00;;;;;20.91;50.69;102032.81;6309379;22;45276;-92
2021/06/07 08:42:42;;;;;;;;;8.00;8.00;;;;;20.98;50.95;102028.88;6311276;22;45234;-92
2021/06/07 08:45:11;;;;;;;;;6.75;5.50;;;;;21.07;50.50;102028.31;6337090;22;46874;-93
2021/06/07 08:47:40;;;;;;;;;6.00;6.00;;;;;21.13;50.29;102029.75;6337296;22;45837;-92
2021/06/07 08:50:07;;;;;;;;;6.50;6.50;;;;;21.21;49.89;102030.13;6337332;22;45693;-93
2021/06/07 08:52:32;;;;;;;;;8.00;8.00;;;;;21.33;49.80;102032.94;6311134;22;45941;-92
2021/06/07 08:54:58;;;;;;;;;6.75;5.00;;;;;21.39;49.85;102026.44;6310195;22;47201;-91
2021/06/07 08:57:25;;;;;;;;;6.25;6.25;;;;;21.47;49.22;102038.25;6310763;22;45274;-93
2021/06/07 08:59:50;;;;;;;;;8.00;6.00;;;;;21.52;49.04;102026.53;6307193;22;45528;-92
2021/06/07 09:02:16;;;;;;;;;5.50;5.00;;;;;21.66;49.35;102033.63;6310063;22;45217;-92
2021/06/07 09:04:47;;;;;;;;;5.00;5.00;;;;;21.77;48.75;102033.81;6336465;22;46944;-92
2021/06/07 09:07:12;;;;;;;;;7.33;5.33;;;;;21.87;48.91;102029.66;6310504;22;45239;-92
2021/06/07 09:09:39;;;;;;;;;7.25;7.00;;;;;22.01;48.46;102038.50;6310011;22;45302;-92
2021/06/07 09:12:08;;;;;;;;;5.25;5.25;;;;;22.06;48.13;102023.16;6310331;22;45556;-92
2021/06/07 09:14:40;;;;;;;;;5.00;5.00;;;;;22.16;47.63;102023.38;6310237;22;46813;-92
2021/06/07 09:17:21;;;;;;;;;9.50;7.00;;;;;22.31;47.80;102029.47;6310488;22;45670;-93
2021/06/07 09:19:49;;;;;;;;;6.00;6.00;;;;;22.42;47.52;102026.13;6310766;22;45701;-92
2021/06/07 09:22:24;;;;;;;;;5.00;5.00;;;;;22.55;46.61;102032.34;6310515;22;45270;-91
2021/06/07 09:25:07;;;;;;;;;4.00;4.00;;;;;22.69;45.89;102031.41;6336549;22;47338;-92
2021/06/07 09:27:33;;;;;;;;;3.67;3.00;;;;;22.82;46.10;102030.63;6310418;22;45815;-92
2021/06/07 09:30:24;;;;;;;;;4.33;4.33;;;;;22.87;45.49;102024.97;6335116;22;45309;-93
2021/06/07 09:32:53;;;;;;;;;6.00;6.00;;;;;23.04;44.54;102034.44;6309899;22;45588;-92
2021/06/07 09:35:18;;;;;;;;;5.67;5.00;;;;;23.16;43.85;102033.59;6309649;22;47618;-91
2021/06/07 09:38:06;;;;;;;;;6.67;5.67;;;;;23.29;43.84;102030.06;6338415;22;45214;-93
2021/06/07 09:40:31;;;;;;;;;5.00;5.00;;;;;23.42;44.39;102027.44;6310797;22;45252;-93
2021/06/07 09:42:59;;;;;;;;;4.00;4.00;;;;;23.54;43.18;102037.19;6310036;22;45412;-91
2021/06/07 09:45:47;;;;;;;;;4.67;3.00;;;;;23.71;42.93;102032.50;6309132;22;48285;-92
2021/06/07 09:48:17;;;;;;;;;3.67;2.67;;;;;23.84;42.85;102035.94;6309865;22;45235;-92
2021/06/07 09:51:00;;;;;;;;;4.33;3.00;;;;;23.97;42.51;102037.72;6335942;22;45413;-92
2021/06/07 09:53:44;;;;;;;;;4.33;4.00;;;;;24.14;42.13;102033.84;6309798;22;45475;-91
2021/06/07 09:56:10;;;;;;;;;4.67;3.33;;;;;24.29;41.92;102029.19;6309095;22;46941;-93
2021/06/07 09:58:36;;;;;;;;;2.33;2.33;;;;;24.38;40.13;102030.31;6311179;22;45345;-92
2021/06/07 10:01:13;;;;;;;;;3.00;3.00;;;;;24.47;40.40;102034.97;6335580;22;45431;-93
2021/06/07 10:03:44;;;;;;;;;3.33;3.00;;;;;24.61;40.19;102033.91;6310498;22;45361;-92
2021/06/07 10:06:23;;;;;;;;;3.33;2.33;;;;;24.76;39.66;102031.91;6308952;22;47425;-92
2021/06/07 10:08:52;;;;;;;;;4.00;4.00;;;;;24.91;39.74;102024.56;6309133;22;45369;-92
2021/06/07 10:11:21;;;;;;;;;3.67;3.67;;;;;25.05;39.07;102031.50;6310014;22;45274;-93
2021/06/07 10:13:48;;;;;;;;;4.00;3.00;;;;;25.16;39.13;102022.69;6310263;22;45493;-92
2021/06/07 10:16:16;;;;;;;;;4.00;4.00;;;;;25.32;38.89;102024.97;6337663;22;45337;-92
2021/06/07 10:18:42;;;;;;;;;3.00;3.00;;;;;25.47;38.73;102024.72;6334836;22;45312;-93
2021/06/07 10:21:11;;;;;;;;;4.33;4.33;;;;;25.61;37.65;102021.00;6309802;22;45314;-92
2021/06/07 10:23:37;;;;;;;;;3.00;3.00;;;;;25.70;37.94;102019.41;6336060;22;45422;-92
2021/06/07 10:26:05;;;;;;;;;3.00;3.00;;;;;25.89;37.40;102024.09;6309046;22;48215;-92
2021/06/07 10:28:47;;;;;;;;;2.33;2.33;;;;;26.01;37.20;102027.56;6310080;22;45415;-94
2021/06/07 10:31:17;;;;;;;;;3.67;2.67;;;;;26.12;36.34;102032.88;6309427;22;45417;-93
2021/06/07 10:34:06;;;;;;;;;4.00;2.00;;;;;26.22;35.85;102021.41;6338143;22;45268;-92
2021/06/07 10:37:34;;;;;;;;;;;;;;;;;;;;;
2021/06/07 10:43:43;;;;;;;;;4.67;4.00;;;;;26.85;35.03;102014.44;6182806;23;45534;-94
2021/06/07 10:46:25;;;;;;;;;3.67;3.67;;;;;27.02;34.56;102018.38;6181703;23;45370;-93
2021/06/07 10:48:54;;;;;;;;;3.00;2.33;;;;;27.13;34.91;102014.75;6180345;23;47347;-93
2021/06/07 10:51:47;;;;;;;;;3.00;3.00;;;;;27.24;34.47;102016.47;6180725;23;45377;-95
2021/06/07 10:54:36;;;;;;;;;4.00;3.33;;;;;27.42;35.53;102019.34;6156446;23;45426;-95
2021/06/07 10:57:28;;;;;;;;;4.00;4.00;;;;;27.60;34.42;102012.41;6156723;23;45365;-93
2021/06/07 11:00:00;;;;;;;;;4.00;3.33;;;;;27.73;34.14;102006.78;6152385;23;47067;-94
2021/06/07 11:02:33;;;;;;;;;3.33;3.33;;;;;27.89;33.62;102013.44;6152777;23;45607;-94
2021/06/07 11:05:07;;;;;;;;;3.00;3.00;;;;;28.04;33.63;102019.22;6153290;23;45467;-94
2021/06/07 11:07:43;;;;;;;;;2.00;2.00;;;;;28.21;33.10;102006.97;6179086;23;45408;-93
2021/06/07 11:10:25;;;;;;;;;2.00;2.00;;;;;28.37;33.38;102016.31;6178320;23;45405;-93
2021/06/07 11:12:54;;;;;;;;;4.33;3.33;;;;;28.53;33.43;102010.34;6177332;23;45492;-94
2021/06/07 11:15:25;;;;;;;;;4.00;4.00;;;;;28.67;32.72;102009.06;6153390;23;45549;-93
2021/06/07 11:18:18;;;;;;;;;5.00;5.00;;;;;28.86;32.58;102010.84;6152562;23;45511;-93
2021/06/07 11:20:55;;;;;;;;;3.67;3.67;;;;;28.98;31.98;102005.31;6260378;22;48077;-94
2021/06/07 11:23:33;;;;;;;;;5.00;5.00;;;;;29.05;32.68;102006.41;6307082;22;45916;-93
2021/06/07 11:26:00;;;;;;;;;5.00;4.00;;;;;29.10;31.79;102009.50;6307332;22;45237;-93
2021/06/07 11:28:42;;;;;;;;;4.00;3.00;;;;;29.17;31.76;102001.72;6308741;22;45418;-93
2021/06/07 11:31:19;;;;;;;;;5.00;3.67;;;;;29.30;31.81;102009.44;6308387;22;47174;-93